Fort Mohave, Arizona
Current Conditions -  °F | °C
As of 5:15 AM on Friday 31 Oct 2014 (Local Time) from KIFP Reporting Station
Clear Clear  
Wind Chill: 64°   Ceiling: Unl
Heat Index: 64°   Visibility: 10mi
Dew Point: 36°   Wind: 0mph
Humidity: 34%   Direction: NA
Pressure: 29.89"   Gusts: NA
Location:  35.01°N, 114.58°W
Report Text: KIFP 311215Z AUTO 00000KT 10SM CLR 18/02 A2989 RMK AO2 PWINO
Loading
Personal Weather Stations






























Interactive Weather Map
Tropical Storm Tracking
New forecast layout! Learn more

10-Day Weather Forecast

Advertisements
Track Severe Weather on mobile